Time;durP1;ratioP1;P1;durP2;ratioP2;P2;SDS_P1;SDS_P2;PMS_P1;PMS_P2;Temp;Humidity;BMP_temperature;BMP_pressure;BME280_temperature;BME280_humidity;BME280_pressure;Samples;Min_cycle;Max_cycle;Signal;HPM_P1;HPM_P2
2022/09/18 00:01:28;;;;;;;0.80;0.80;;;10.40;99.90;;;;;;4974471;28;20079;-70
2022/09/18 00:03:58;;;;;;;0.82;0.60;;;10.40;99.90;;;;;;4974851;28;20026;-70
2022/09/18 00:06:27;;;;;;;1.52;0.60;;;10.40;99.90;;;;;;4975046;28;20364;-69
2022/09/18 00:08:56;;;;;;;2.35;1.10;;;10.40;99.90;;;;;;4974776;28;20158;-69
2022/09/18 00:11:25;;;;;;;0.47;0.47;;;10.40;99.90;;;;;;4974930;28;20388;-68
2022/09/18 00:13:51;;;;;;;0.52;0.52;;;10.40;99.90;;;;;;4973866;28;20031;-68
2022/09/18 00:16:20;;;;;;;0.65;0.65;;;10.30;99.90;;;;;;4975002;28;20113;-68
2022/09/18 00:18:46;;;;;;;1.45;0.70;;;10.40;99.90;;;;;;4981507;28;20030;-68
2022/09/18 00:21:17;;;;;;;0.73;0.70;;;10.40;99.90;;;;;;4994329;28;20066;-68
2022/09/18 00:23:43;;;;;;;0.57;0.57;;;10.40;99.90;;;;;;4993537;28;20426;-68
2022/09/18 00:26:11;;;;;;;0.88;0.73;;;10.40;99.90;;;;;;4993781;28;20046;-69
2022/09/18 00:28:55;;;;;;;0.60;0.45;;;10.40;99.90;;;;;;4993529;28;20026;-68
2022/09/18 00:31:25;;;;;;;0.98;0.60;;;10.40;99.90;;;;;;4994086;28;20117;-70
2022/09/18 00:33:52;;;;;;;0.60;0.60;;;10.40;99.90;;;;;;4993067;28;20037;-69
2022/09/18 00:36:18;;;;;;;1.30;0.70;;;10.40;99.90;;;;;;4990803;28;20037;-68
2022/09/18 00:38:44;;;;;;;1.05;0.80;;;10.50;99.90;;;;;;4993315;28;20022;-68
2022/09/18 00:41:22;;;;;;;0.63;0.63;;;10.40;99.90;;;;;;4993663;28;20121;-68
2022/09/18 00:43:49;;;;;;;1.80;0.70;;;10.50;99.90;;;;;;4993426;28;20053;-69
2022/09/18 00:46:27;;;;;;;1.00;0.57;;;10.50;99.90;;;;;;4993477;28;20556;-69
2022/09/18 00:49:12;;;;;;;1.15;0.80;;;10.50;99.90;;;;;;4993807;28;20029;-68
2022/09/18 00:51:38;;;;;;;3.20;0.73;;;10.50;99.90;;;;;;4993409;28;20542;-69
2022/09/18 00:54:07;;;;;;;2.17;0.95;;;10.50;99.90;;;;;;4992835;28;20026;-68
2022/09/18 00:56:33;;;;;;;0.70;0.70;;;10.50;99.90;;;;;;4992958;28;20118;-68
2022/09/18 00:58:59;;;;;;;1.27;0.90;;;10.50;99.90;;;;;;4993625;28;20054;-69
2022/09/18 01:01:25;;;;;;;1.92;0.98;;;10.50;99.90;;;;;;4993657;28;20031;-69
2022/09/18 01:03:50;;;;;;;2.30;0.88;;;10.40;99.90;;;;;;4992807;28;20394;-68
2022/09/18 01:06:30;;;;;;;2.17;1.00;;;10.50;99.90;;;;;;4993014;28;20052;-68
2022/09/18 01:09:43;;;;;;;2.92;1.02;;;10.40;99.90;;;;;;4993448;28;20447;-68
2022/09/18 01:12:48;;;;;;;1.48;0.90;;;10.50;99.90;;;;;;4957896;28;20077;-68
2022/09/18 01:15:24;;;;;;;1.33;0.80;;;10.40;99.90;;;;;;4993351;28;20034;-67
2022/09/18 01:18:05;;;;;;;1.23;0.93;;;10.40;99.90;;;;;;4992424;28;20030;-68
2022/09/18 01:21:04;;;;;;;3.10;1.02;;;10.40;99.90;;;;;;4992599;28;20487;-69
2022/09/18 01:23:50;;;;;;;1.65;0.80;;;10.40;99.90;;;;;;4993299;28;20126;-68
2022/09/18 01:26:38;;;;;;;1.25;0.98;;;10.40;99.90;;;;;;4992825;28;20534;-69
2022/09/18 01:29:27;;;;;;;1.20;0.80;;;10.40;99.90;;;;;;4993134;28;20027;-69
2022/09/18 01:32:03;;;;;;;2.00;0.75;;;10.40;99.90;;;;;;4992294;28;20081;-69
2022/09/18 01:34:31;;;;;;;0.80;0.80;;;10.40;99.90;;;;;;4993294;28;20027;-70
2022/09/18 01:37:10;;;;;;;0.68;0.68;;;10.40;99.90;;;;;;4992815;28;20030;-69
2022/09/18 01:40:03;;;;;;;2.22;0.80;;;10.50;99.90;;;;;;4992997;28;20117;-69
2022/09/18 01:42:32;;;;;;;0.50;0.50;;;10.50;99.90;;;;;;4989469;28;20122;-69
2022/09/18 01:45:03;;;;;;;0.60;0.60;;;10.50;99.90;;;;;;4992858;28;20030;-69
2022/09/18 01:47:34;;;;;;;0.52;0.52;;;10.50;99.90;;;;;;4993201;28;20026;-70
2022/09/18 01:50:01;;;;;;;0.60;0.60;;;10.60;99.90;;;;;;4992931;28;20031;-69
2022/09/18 01:52:42;;;;;;;1.30;0.60;;;10.60;99.90;;;;;;4993128;28;20085;-68
2022/09/18 01:55:18;;;;;;;1.67;0.50;;;10.60;99.90;;;;;;4993376;28;20105;-69
2022/09/18 01:58:02;;;;;;;2.58;0.85;;;10.60;99.90;;;;;;4992558;28;20091;-69
2022/09/18 02:00:31;;;;;;;1.55;0.98;;;10.60;99.90;;;;;;4993101;28;20030;-68
2022/09/18 02:03:04;;;;;;;0.90;0.73;;;10.60;99.90;;;;;;4974966;28;20371;-70
2022/09/18 02:05:34;;;;;;;0.85;0.68;;;10.60;99.90;;;;;;4992846;28;20042;-70
2022/09/18 02:08:15;;;;;;;1.50;0.80;;;10.60;99.90;;;;;;4993036;28;20107;-69
2022/09/18 02:11:03;;;;;;;0.80;0.60;;;10.70;99.90;;;;;;4992623;28;20053;-67
2022/09/18 02:13:36;;;;;;;0.73;0.60;;;10.70;99.90;;;;;;4989897;28;20037;-70
2022/09/18 02:16:09;;;;;;;0.50;0.50;;;10.70;99.90;;;;;;4992993;28;20037;-69
2022/09/18 02:18:42;;;;;;;0.90;0.50;;;10.70;99.90;;;;;;4992744;28;20109;-74
2022/09/18 02:21:13;;;;;;;0.63;0.55;;;10.70;99.90;;;;;;4992830;28;20026;-70
2022/09/18 02:23:41;;;;;;;0.43;0.43;;;10.70;99.90;;;;;;4992245;28;20431;-69
2022/09/18 02:26:08;;;;;;;0.65;0.60;;;10.70;99.90;;;;;;4975703;28;20089;-69
2022/09/18 02:28:37;;;;;;;1.40;0.70;;;10.70;99.90;;;;;;4994226;28;20034;-68
2022/09/18 02:31:03;;;;;;;1.77;0.73;;;10.70;99.90;;;;;;4995365;28;20019;-69
2022/09/18 02:33:31;;;;;;;1.75;0.80;;;10.70;99.90;;;;;;4995058;28;20102;-69
2022/09/18 02:36:21;;;;;;;2.97;0.80;;;10.70;99.90;;;;;;4994832;28;20034;-69
2022/09/18 02:39:06;;;;;;;1.13;0.60;;;10.70;99.90;;;;;;4997536;28;20452;-69
2022/09/18 02:41:57;;;;;;;0.88;0.75;;;10.70;99.90;;;;;;4987125;28;20452;-68
2022/09/18 02:44:36;;;;;;;1.38;0.55;;;10.60;99.90;;;;;;4957309;29;20134;-68
2022/09/18 02:47:14;;;;;;;0.80;0.63;;;10.60;99.90;;;;;;4956480;29;20042;-69
2022/09/18 02:49:58;;;;;;;0.70;0.50;;;10.60;99.90;;;;;;4956971;29;20070;-70
2022/09/18 02:52:28;;;;;;;0.63;0.63;;;10.60;99.90;;;;;;4957315;29;20031;-69
2022/09/18 02:55:01;;;;;;;1.40;0.70;;;10.60;99.90;;;;;;4956599;29;20043;-70
2022/09/18 02:57:38;;;;;;;1.33;0.60;;;10.60;99.90;;;;;;4956733;29;20054;-69
2022/09/18 03:00:06;;;;;;;1.67;0.70;;;10.60;99.90;;;;;;4957319;29;20411;-69
2022/09/18 03:02:32;;;;;;;1.60;0.40;;;10.70;99.90;;;;;;4957034;28;20031;-70
2022/09/18 03:04:57;;;;;;;0.60;0.60;;;10.60;99.90;;;;;;4956610;29;20183;-69
2022/09/18 03:07:23;;;;;;;1.67;0.70;;;10.60;99.90;;;;;;4956944;29;20454;-68
2022/09/18 03:09:49;;;;;;;0.55;0.55;;;10.60;99.90;;;;;;4956235;29;20031;-70
2022/09/18 03:12:15;;;;;;;1.38;1.00;;;10.60;99.90;;;;;;4956811;29;20034;-68
2022/09/18 03:14:40;;;;;;;0.70;0.70;;;10.60;99.90;;;;;;4956520;29;20031;-69
2022/09/18 03:17:07;;;;;;;0.98;0.60;;;10.60;99.90;;;;;;4956646;29;20023;-68
2022/09/18 03:19:33;;;;;;;0.80;0.70;;;10.60;99.90;;;;;;4956774;29;20046;-69
2022/09/18 03:21:58;;;;;;;0.80;0.50;;;10.50;99.90;;;;;;4956254;29;20053;-68
2022/09/18 03:24:24;;;;;;;0.85;0.60;;;10.60;99.90;;;;;;4955287;29;20171;-68
2022/09/18 03:26:51;;;;;;;1.48;0.57;;;10.50;99.90;;;;;;4956245;29;20476;-69
2022/09/18 03:29:16;;;;;;;0.60;0.60;;;10.50;99.90;;;;;;4956469;29;20038;-69
2022/09/18 03:31:42;;;;;;;4.43;2.05;;;10.50;99.90;;;;;;4956268;29;20368;-70
2022/09/18 03:34:08;;;;;;;0.68;0.63;;;10.50;99.90;;;;;;4956066;29;20031;-69
2022/09/18 03:36:34;;;;;;;0.82;0.68;;;10.50;99.90;;;;;;4956303;29;20515;-69
2022/09/18 03:39:00;;;;;;;1.55;0.80;;;10.50;99.90;;;;;;4955877;29;20031;-69
2022/09/18 03:41:25;;;;;;;0.75;0.40;;;10.40;99.90;;;;;;4956158;29;20038;-69
2022/09/18 03:43:51;;;;;;;1.83;0.88;;;10.40;99.90;;;;;;4953997;29;20392;-69
2022/09/18 03:46:22;;;;;;;0.60;0.50;;;10.40;99.90;;;;;;4955957;28;20436;-68
2022/09/18 03:48:51;;;;;;;0.67;0.60;;;10.40;99.90;;;;;;4954950;29;20027;-70
2022/09/18 03:51:18;;;;;;;0.50;0.50;;;10.40;99.90;;;;;;4956197;29;20127;-69
2022/09/18 03:53:44;;;;;;;1.25;0.50;;;10.40;99.90;;;;;;4955833;29;20031;-76
2022/09/18 03:56:11;;;;;;;1.02;0.55;;;10.30;99.90;;;;;;4955818;29;20067;-68
2022/09/18 03:58:37;;;;;;;1.70;1.00;;;10.30;99.90;;;;;;4956002;29;20023;-70
2022/09/18 04:01:03;;;;;;;0.82;0.50;;;10.30;99.90;;;;;;4955174;29;20500;-68
2022/09/18 04:03:28;;;;;;;1.95;0.57;;;10.30;99.90;;;;;;4955947;29;20408;-69
2022/09/18 04:05:54;;;;;;;1.15;0.60;;;10.30;99.90;;;;;;4964632;28;20035;-70
2022/09/18 04:08:20;;;;;;;1.13;0.60;;;10.30;99.90;;;;;;4974941;28;20041;-70
2022/09/18 04:10:48;;;;;;;0.98;0.45;;;10.30;99.90;;;;;;4974948;28;20113;-75
2022/09/18 04:13:15;;;;;;;0.60;0.60;;;10.30;99.90;;;;;;4974767;28;20019;-70
2022/09/18 04:15:40;;;;;;;0.65;0.65;;;10.20;99.90;;;;;;4974955;28;20034;-69
2022/09/18 04:18:06;;;;;;;0.98;0.60;;;10.20;99.90;;;;;;4971454;28;20019;-69
2022/09/18 04:20:32;;;;;;;1.25;0.70;;;10.20;99.90;;;;;;4964036;28;20030;-69
2022/09/18 04:22:57;;;;;;;0.88;0.55;;;10.20;99.90;;;;;;4965486;28;20042;-69
2022/09/18 04:25:23;;;;;;;0.80;0.63;;;10.20;99.90;;;;;;4966232;28;20062;-68
2022/09/18 04:27:49;;;;;;;1.73;0.75;;;10.20;99.90;;;;;;4965985;28;20034;-69
2022/09/18 04:30:15;;;;;;;2.05;0.60;;;10.20;99.90;;;;;;4963526;28;20376;-69
2022/09/18 04:32:44;;;;;;;1.48;0.60;;;10.10;99.90;;;;;;4966071;28;20027;-68
2022/09/18 04:35:10;;;;;;;4.70;0.68;;;10.20;99.90;;;;;;4965358;28;20407;-68
2022/09/18 04:37:36;;;;;;;0.50;0.50;;;10.10;99.90;;;;;;4974688;28;20074;-70
2022/09/18 04:40:04;;;;;;;1.45;0.73;;;10.10;99.90;;;;;;4974183;28;20027;-68
2022/09/18 04:42:30;;;;;;;0.82;0.50;;;10.20;99.90;;;;;;4974767;28;20130;-69
2022/09/18 04:44:56;;;;;;;2.40;0.70;;;10.20;99.90;;;;;;4979634;28;20027;-72
2022/09/18 04:47:21;;;;;;;1.63;0.80;;;10.20;99.90;;;;;;4988038;28;20034;-72
2022/09/18 04:49:47;;;;;;;0.55;0.50;;;10.20;99.90;;;;;;4984710;28;20427;-71
2022/09/18 04:52:12;;;;;;;1.05;0.60;;;10.20;99.90;;;;;;4980284;28;20027;-72
2022/09/18 04:54:38;;;;;;;0.60;0.45;;;10.20;99.90;;;;;;4974261;28;20030;-71
2022/09/18 04:57:04;;;;;;;1.73;0.90;;;10.30;99.90;;;;;;4991460;28;20026;-70
2022/09/18 04:59:29;;;;;;;1.20;0.73;;;10.30;99.90;;;;;;4993342;28;20035;-67
2022/09/18 05:01:55;;;;;;;1.17;0.68;;;10.30;99.90;;;;;;4992876;28;20067;-66
2022/09/18 05:04:21;;;;;;;1.50;0.50;;;10.30;99.90;;;;;;4985373;28;20434;-69
2022/09/18 05:06:46;;;;;;;1.17;0.60;;;10.40;99.90;;;;;;4973660;28;20097;-68
2022/09/18 05:09:12;;;;;;;0.85;0.50;;;10.40;99.90;;;;;;4973407;28;20031;-68
2022/09/18 05:11:38;;;;;;;1.00;0.80;;;10.40;99.90;;;;;;4973922;28;20038;-68
2022/09/18 05:14:03;;;;;;;6.15;0.75;;;10.40;99.90;;;;;;4973437;28;20481;-68
2022/09/18 05:16:29;;;;;;;2.83;0.70;;;10.40;99.90;;;;;;4973638;28;20426;-70
2022/09/18 05:18:55;;;;;;;0.70;0.57;;;10.40;99.70;;;;;;4973441;28;20023;-69
2022/09/18 05:21:21;;;;;;;3.75;0.55;;;10.50;99.50;;;;;;4980977;28;20415;-68
2022/09/18 05:23:46;;;;;;;1.20;0.50;;;10.50;99.50;;;;;;4993239;28;20490;-68
2022/09/18 05:26:12;;;;;;;3.03;0.70;;;10.50;99.50;;;;;;4992758;28;20035;-69
2022/09/18 05:28:38;;;;;;;0.57;0.50;;;10.50;99.10;;;;;;4993187;28;20403;-69
2022/09/18 05:31:04;;;;;;;1.85;0.50;;;10.50;98.60;;;;;;4992714;28;20023;-69
2022/09/18 05:33:30;;;;;;;2.53;0.57;;;10.60;97.70;;;;;;4993167;28;20026;-69
2022/09/18 05:35:56;;;;;;;1.27;0.60;;;10.60;97.50;;;;;;4992811;28;20030;-69
2022/09/18 05:38:25;;;;;;;1.90;0.50;;;10.60;97.70;;;;;;4993023;28;20394;-68
2022/09/18 05:40:52;;;;;;;0.45;0.43;;;10.70;96.60;;;;;;4992648;28;20066;-70
2022/09/18 05:43:18;;;;;;;2.70;0.55;;;10.70;95.80;;;;;;4992830;28;20050;-69
2022/09/18 05:45:44;;;;;;;0.45;0.32;;;10.70;95.20;;;;;;4993070;28;20038;-68
2022/09/18 05:48:13;;;;;;;2.90;0.47;;;10.70;94.70;;;;;;4992689;28;20034;-69
2022/09/18 05:50:39;;;;;;;1.90;0.52;;;10.80;94.00;;;;;;4992948;28;20026;-68
2022/09/18 05:53:11;;;;;;;0.45;0.40;;;10.80;94.20;;;;;;4992504;28;20457;-69
2022/09/18 05:55:37;;;;;;;0.43;0.38;;;10.80;94.50;;;;;;4984515;28;20038;-69
2022/09/18 05:58:04;;;;;;;0.95;0.55;;;10.80;94.70;;;;;;4973134;28;20391;-68
2022/09/18 06:00:32;;;;;;;0.88;0.40;;;10.80;94.60;;;;;;4973197;28;20121;-69
2022/09/18 06:03:00;;;;;;;2.28;1.27;;;10.80;95.00;;;;;;4972784;28;20464;-69
2022/09/18 06:05:27;;;;;;;0.68;0.68;;;10.80;95.20;;;;;;4973709;28;20031;-68
2022/09/18 06:07:53;;;;;;;1.30;0.60;;;10.80;95.90;;;;;;4973219;28;20154;-68
2022/09/18 06:10:20;;;;;;;3.10;0.80;;;10.80;96.40;;;;;;4973372;28;20065;-69
2022/09/18 06:12:46;;;;;;;1.65;0.82;;;10.80;96.50;;;;;;4977095;28;20125;-69
2022/09/18 06:15:13;;;;;;;1.23;0.65;;;10.90;96.80;;;;;;4976668;28;20026;-68
2022/09/18 06:17:39;;;;;;;2.33;0.68;;;10.90;97.00;;;;;;4977140;28;20388;-68
2022/09/18 06:20:07;;;;;;;3.42;0.68;;;11.00;96.60;;;;;;4976467;28;20027;-68
2022/09/18 06:22:33;;;;;;;1.30;0.63;;;11.00;96.50;;;;;;4977042;28;20034;-69
2022/09/18 06:24:59;;;;;;;1.95;0.70;;;11.10;96.40;;;;;;4977691;28;20455;-68
2022/09/18 06:27:25;;;;;;;1.50;0.82;;;11.10;96.60;;;;;;4996509;28;20085;-68
2022/09/18 06:29:51;;;;;;;1.42;0.65;;;11.10;96.60;;;;;;4978790;28;20061;-68
2022/09/18 06:32:19;;;;;;;1.80;0.60;;;11.20;96.30;;;;;;4995919;28;20034;-68
2022/09/18 06:34:45;;;;;;;2.78;0.52;;;11.20;95.90;;;;;;4996163;28;20081;-68
2022/09/18 06:37:12;;;;;;;0.50;0.50;;;11.20;94.50;;;;;;4996238;28;20044;-68
2022/09/18 06:39:37;;;;;;;1.92;0.70;;;11.30;94.40;;;;;;4996238;28;20054;-69
2022/09/18 06:42:03;;;;;;;6.00;0.73;;;11.30;94.50;;;;;;4993488;28;20055;-69
2022/09/18 06:44:29;;;;;;;0.57;0.50;;;11.40;93.60;;;;;;4976061;28;20081;-69
2022/09/18 06:46:55;;;;;;;1.25;0.68;;;11.40;92.40;;;;;;4976552;28;20491;-68
2022/09/18 06:49:20;;;;;;;2.25;0.57;;;11.40;92.50;;;;;;4976229;28;20471;-68
2022/09/18 06:51:47;;;;;;;1.15;0.50;;;11.40;92.20;;;;;;4976436;28;20034;-69
2022/09/18 06:54:13;;;;;;;1.10;0.68;;;11.50;92.40;;;;;;4976191;28;20120;-69
2022/09/18 06:56:39;;;;;;;1.65;0.50;;;11.50;92.00;;;;;;4976299;28;20038;-68
2022/09/18 06:59:05;;;;;;;0.55;0.43;;;11.50;91.40;;;;;;4975698;28;20065;-68
2022/09/18 07:01:31;;;;;;;1.40;0.85;;;11.70;90.70;;;;;;4976508;28;20062;-70
2022/09/18 07:03:56;;;;;;;3.55;0.98;;;11.80;90.20;;;;;;4976119;28;20085;-69
2022/09/18 07:06:22;;;;;;;1.60;0.88;;;11.80;90.00;;;;;;4975800;28;20142;-68
2022/09/18 07:08:48;;;;;;;0.95;0.73;;;12.00;89.20;;;;;;4976222;28;20475;-68
2022/09/18 07:11:14;;;;;;;0.82;0.50;;;12.10;88.00;;;;;;4975392;28;20027;-69
2022/09/18 07:13:39;;;;;;;3.67;0.63;;;12.30;87.70;;;;;;4976245;28;20480;-68
2022/09/18 07:16:05;;;;;;;0.70;0.60;;;12.90;85.00;;;;;;4975436;28;20031;-69
2022/09/18 07:18:31;;;;;;;0.60;0.50;;;13.60;82.30;;;;;;4975882;28;20038;-68
2022/09/18 07:21:00;;;;;;;1.48;0.57;;;14.40;79.40;;;;;;4975705;28;20034;-68
2022/09/18 07:23:28;;;;;;;0.93;0.60;;;15.40;73.30;;;;;;4976054;28;20026;-68
2022/09/18 07:25:54;;;;;;;2.88;0.60;;;15.90;69.20;;;;;;4975869;28;20057;-68
2022/09/18 07:28:19;;;;;;;1.58;0.50;;;16.40;68.60;;;;;;4975448;28;20038;-68
2022/09/18 07:30:45;;;;;;;2.45;0.73;;;16.10;66.60;;;;;;4975914;28;20027;-68
2022/09/18 07:33:11;;;;;;;2.45;0.77;;;15.90;66.50;;;;;;4975318;28;20094;-68
2022/09/18 07:35:37;;;;;;;3.45;0.60;;;15.60;66.90;;;;;;4975642;28;20031;-68
2022/09/18 07:38:08;;;;;;;1.50;0.70;;;15.60;67.80;;;;;;4975641;28;20035;-68
2022/09/18 07:40:33;;;;;;;2.00;0.70;;;15.80;67.60;;;;;;4975880;28;20027;-67
2022/09/18 07:43:05;;;;;;;2.17;0.90;;;15.50;67.60;;;;;;4985097;28;20046;-67
2022/09/18 07:45:31;;;;;;;2.45;0.70;;;16.70;66.90;;;;;;4994910;28;20061;-68
2022/09/18 07:47:59;;;;;;;3.08;1.10;;;17.50;63.40;;;;;;4995046;28;20035;-67
2022/09/18 07:50:24;;;;;;;4.55;0.80;;;17.20;63.80;;;;;;4994473;28;20100;-68
2022/09/18 07:52:55;;;;;;;1.08;0.60;;;17.30;62.20;;;;;;4994824;28;20109;-68
2022/09/18 07:55:23;;;;;;;1.15;0.63;;;17.30;61.90;;;;;;4994405;28;20030;-68
2022/09/18 07:57:54;;;;;;;0.85;0.50;;;17.50;62.90;;;;;;4994681;28;20026;-69
2022/09/18 08:00:20;;;;;;;;;;;18.20;59.90;;;;;;4994680;28;20033;-69
2022/09/18 08:02:45;;;;;;;0.75;0.57;;;18.40;58.60;;;;;;4992588;28;19910;-69
2022/09/18 08:05:11;;;;;;;3.42;0.50;;;18.60;58.00;;;;;;4972971;28;20059;-69
2022/09/18 08:07:37;;;;;;;2.30;0.52;;;19.40;57.20;;;;;;4975041;28;20030;-66
2022/09/18 08:10:04;;;;;;;1.63;0.75;;;19.90;54.30;;;;;;4974644;28;20073;-69
2022/09/18 08:12:30;;;;;;;3.92;0.73;;;20.50;52.70;;;;;;4975084;28;20031;-68
2022/09/18 08:14:56;;;;;;;0.60;0.38;;;20.70;50.80;;;;;;4974764;28;20031;-68
2022/09/18 08:17:22;;;;;;;1.05;0.60;;;20.80;50.40;;;;;;4974007;28;20471;-67
2022/09/18 08:19:48;;;;;;;1.38;0.47;;;21.20;49.80;;;;;;4973315;28;20025;-67
2022/09/18 08:22:13;;;;;;;1.33;0.60;;;21.00;48.10;;;;;;4974616;28;20448;-68
2022/09/18 08:24:39;;;;;;;2.50;0.60;;;21.00;48.20;;;;;;4974327;28;20033;-68
2022/09/18 08:27:05;;;;;;;1.38;0.60;;;20.40;48.70;;;;;;4973864;28;20074;-68
2022/09/18 08:29:31;;;;;;;0.85;0.40;;;19.50;50.80;;;;;;4974624;28;20038;-67
2022/09/18 08:31:56;;;;;;;0.93;0.40;;;18.80;52.90;;;;;;4974428;28;20348;-67
2022/09/18 08:34:22;;;;;;;0.65;0.50;;;18.40;54.10;;;;;;4972774;28;20055;-67
2022/09/18 08:36:48;;;;;;;1.17;0.47;;;17.80;55.90;;;;;;4974425;28;20070;-67
2022/09/18 08:39:14;;;;;;;0.98;0.52;;;17.30;58.20;;;;;;4973981;28;20038;-67
2022/09/18 08:41:42;;;;;;;0.52;0.50;;;16.90;59.40;;;;;;4973953;28;20027;-68
2022/09/18 08:44:12;;;;;;;1.13;0.60;;;16.50;60.40;;;;;;4992710;28;20042;-68
2022/09/18 08:46:44;;;;;;;0.52;0.50;;;16.30;62.70;;;;;;4993808;28;20037;-67
2022/09/18 08:49:31;;;;;;;1.10;0.50;;;16.10;63.30;;;;;;4993420;28;20033;-68
2022/09/18 08:52:05;;;;;;;1.60;0.80;;;16.00;63.60;;;;;;4993868;28;20030;-67
2022/09/18 08:55:05;;;;;;;1.52;0.55;;;15.90;64.50;;;;;;4993932;28;20149;-67
2022/09/18 08:57:48;;;;;;;0.93;0.70;;;15.90;65.20;;;;;;4979257;28;20044;-67
2022/09/18 09:00:30;;;;;;;0.50;0.47;;;15.80;65.20;;;;;;4975780;28;20026;-68
2022/09/18 09:03:25;;;;;;;0.60;0.50;;;15.70;64.80;;;;;;4976175;28;20494;-68
2022/09/18 09:06:18;;;;;;;0.95;0.70;;;15.70;65.40;;;;;;4959829;28;20136;-68
2022/09/18 09:09:09;;;;;;;0.82;0.50;;;15.80;65.30;;;;;;4957185;28;20039;-68
2022/09/18 09:11:47;;;;;;;1.30;0.73;;;15.80;66.30;;;;;;4993707;28;20386;-68
2022/09/18 09:14:19;;;;;;;1.95;0.55;;;15.70;65.30;;;;;;4992861;28;20038;-68
2022/09/18 09:16:50;;;;;;;0.93;0.60;;;15.60;66.70;;;;;;4993456;28;20037;-68
2022/09/18 09:19:16;;;;;;;;;;;15.60;67.50;;;;;;4993428;28;20027;-68
2022/09/18 09:21:49;;;;;;;2.10;0.50;;;15.60;67.50;;;;;;4993219;28;20338;-68
2022/09/18 09:24:28;;;;;;;1.75;0.63;;;15.60;66.80;;;;;;4992907;28;20022;-68
2022/09/18 09:26:55;;;;;;;0.43;0.43;;;15.50;67.60;;;;;;4992923;28;20475;-68
2022/09/18 09:29:28;;;;;;;0.85;0.50;;;15.40;67.20;;;;;;4992751;28;20034;-68
2022/09/18 09:32:03;;;;;;;1.00;0.60;;;15.20;67.40;;;;;;4992841;28;20038;-69
2022/09/18 09:34:35;;;;;;;0.75;0.45;;;15.10;67.00;;;;;;4992246;28;20586;-67
2022/09/18 09:37:05;;;;;;;0.65;0.50;;;15.00;67.10;;;;;;4993363;28;20034;-68
2022/09/18 09:40:13;;;;;;;0.77;0.50;;;15.00;67.90;;;;;;4992793;28;20121;-68
2022/09/18 09:42:52;;;;;;;1.13;0.38;;;15.00;68.70;;;;;;4914648;29;20496;-68
2022/09/18 09:45:44;;;;;;;0.50;0.50;;;15.20;67.90;;;;;;4971924;28;20098;-69
2022/09/18 09:48:39;;;;;;;1.20;0.60;;;15.20;68.40;;;;;;4977517;28;20082;-67
2022/09/18 09:51:25;;;;;;;0.77;0.73;;;15.30;67.80;;;;;;4977514;28;20393;-68
2022/09/18 09:53:54;;;;;;;2.78;0.60;;;15.50;67.50;;;;;;4977211;28;20098;-68
2022/09/18 09:56:43;;;;;;;2.28;0.60;;;15.40;67.30;;;;;;4976950;28;20148;-68
2022/09/18 09:59:27;;;;;;;0.77;0.43;;;15.60;67.90;;;;;;4977526;28;20110;-68
2022/09/18 10:02:09;;;;;;;0.63;0.40;;;15.70;66.30;;;;;;4977633;28;20031;-68
2022/09/18 10:04:46;;;;;;;0.45;0.40;;;15.80;66.70;;;;;;4976682;28;20083;-68
2022/09/18 10:07:20;;;;;;;0.50;0.38;;;15.80;65.10;;;;;;4976645;28;20034;-71
2022/09/18 10:10:24;;;;;;;0.50;0.50;;;15.90;65.90;;;;;;4977414;28;20026;-68
2022/09/18 10:12:55;;;;;;;0.85;0.47;;;15.70;65.40;;;;;;4943600;28;20034;-68
2022/09/18 10:15:23;;;;;;;0.77;0.60;;;15.80;66.00;;;;;;4976662;28;20389;-67
2022/09/18 10:17:54;;;;;;;0.57;0.35;;;15.90;67.10;;;;;;4959643;28;20394;-68
2022/09/18 10:20:26;;;;;;;1.40;0.47;;;16.10;65.50;;;;;;4976706;28;20031;-68
2022/09/18 10:22:54;;;;;;;0.45;0.35;;;16.00;67.20;;;;;;4976659;28;20399;-68
2022/09/18 10:25:59;;;;;;;0.68;0.50;;;15.90;67.70;;;;;;4976549;28;20423;-66
2022/09/18 10:28:28;;;;;;;0.93;0.55;;;16.00;68.10;;;;;;4933442;28;20114;-68
2022/09/18 10:31:04;;;;;;;0.43;0.40;;;15.90;68.20;;;;;;4976787;28;20026;-68
2022/09/18 10:33:44;;;;;;;0.65;0.30;;;15.80;67.20;;;;;;4959500;28;20047;-68
2022/09/18 10:36:30;;;;;;;0.47;0.40;;;15.90;68.20;;;;;;4957449;28;20122;-68
2022/09/18 10:39:14;;;;;;;4.20;0.47;;;15.90;68.10;;;;;;4957140;29;20563;-68
2022/09/18 10:41:41;;;;;;;2.13;0.45;;;15.90;66.70;;;;;;4957324;29;20023;-68
2022/09/18 10:44:13;;;;;;;0.40;0.40;;;15.70;67.30;;;;;;4973977;28;20050;-68
2022/09/18 10:46:50;;;;;;;1.10;0.70;;;15.60;67.40;;;;;;4976510;28;20038;-68
2022/09/18 10:49:23;;;;;;;2.08;0.60;;;15.50;67.00;;;;;;4976176;28;20113;-68
2022/09/18 10:52:13;;;;;;;4.00;0.50;;;15.40;67.50;;;;;;4976877;28;20026;-68
2022/09/18 10:54:39;;;;;;;0.60;0.38;;;15.20;68.40;;;;;;4975960;28;20031;-67
2022/09/18 10:57:32;;;;;;;1.20;0.50;;;15.10;69.10;;;;;;4975806;28;20037;-67
2022/09/18 10:59:59;;;;;;;1.42;0.50;;;15.00;69.40;;;;;;4974841;28;20030;-67
2022/09/18 11:02:27;;;;;;;0.50;0.40;;;15.00;70.50;;;;;;4975605;28;20027;-67
2022/09/18 11:04:53;;;;;;;1.85;0.50;;;14.90;71.10;;;;;;4976224;28;20027;-67
2022/09/18 11:07:21;;;;;;;0.40;0.40;;;14.80;71.70;;;;;;4975554;28;20086;-67
2022/09/18 11:09:47;;;;;;;0.73;0.50;;;14.80;72.40;;;;;;4976007;28;20027;-67
2022/09/18 11:12:22;;;;;;;1.33;0.68;;;14.70;71.60;;;;;;4976090;28;20115;-68
2022/09/18 11:14:58;;;;;;;1.50;0.50;;;14.60;75.00;;;;;;4976185;28;20033;-69
2022/09/18 11:17:31;;;;;;;1.23;0.50;;;14.60;76.40;;;;;;4975644;28;20023;-68
2022/09/18 11:20:00;;;;;;;0.40;0.40;;;14.40;77.50;;;;;;4975845;28;20031;-68
2022/09/18 11:22:36;;;;;;;0.55;0.55;;;14.30;80.70;;;;;;4975314;28;20022;-69
2022/09/18 11:25:17;;;;;;;0.45;0.40;;;14.40;81.70;;;;;;4975886;28;20134;-67
2022/09/18 11:27:50;;;;;;;1.23;0.60;;;14.40;82.40;;;;;;4975802;28;20039;-69
2022/09/18 11:30:32;;;;;;;0.98;0.65;;;14.40;81.90;;;;;;4975211;28;20031;-70
2022/09/18 11:33:19;;;;;;;0.47;0.47;;;14.40;82.70;;;;;;4974904;28;20086;-68
2022/09/18 11:35:49;;;;;;;1.13;0.50;;;14.30;83.60;;;;;;4975612;28;20035;-68
2022/09/18 11:38:18;;;;;;;0.90;0.70;;;14.40;84.50;;;;;;4975318;28;20420;-68
2022/09/18 11:40:49;;;;;;;0.75;0.50;;;14.40;84.50;;;;;;4975503;28;20030;-68
2022/09/18 11:43:29;;;;;;;0.98;0.65;;;14.50;85.20;;;;;;4987341;28;20047;-67
2022/09/18 11:46:08;;;;;;;0.77;0.47;;;14.50;84.20;;;;;;4994830;28;20072;-68
2022/09/18 11:48:48;;;;;;;4.38;0.82;;;14.40;84.00;;;;;;4994417;28;20034;-69
2022/09/18 11:51:25;;;;;;;0.75;0.47;;;14.30;89.50;;;;;;4995002;28;20080;-67
2022/09/18 11:54:00;;;;;;;1.13;0.50;;;13.90;81.50;;;;;;4995001;28;20092;-68
2022/09/18 11:56:39;;;;;;;0.30;0.30;;;13.70;83.30;;;;;;4994475;28;20030;-68
2022/09/18 11:59:13;;;;;;;0.82;0.57;;;13.70;85.50;;;;;;4977456;28;20058;-68
2022/09/18 12:01:43;;;;;;;1.42;0.50;;;13.70;87.00;;;;;;4994290;28;20030;-68
2022/09/18 12:04:15;;;;;;;0.40;0.30;;;13.70;89.40;;;;;;4994556;28;20031;-68
2022/09/18 12:06:43;;;;;;;0.82;0.70;;;13.80;90.30;;;;;;4993925;28;20475;-68
2022/09/18 12:09:31;;;;;;;2.58;0.60;;;13.90;90.20;;;;;;4993554;28;20054;-67
2022/09/18 12:12:11;;;;;;;1.52;0.57;;;13.90;90.30;;;;;;4994270;28;20050;-67
2022/09/18 12:14:48;;;;;;;0.50;0.50;;;14.00;90.80;;;;;;4994107;28;20085;-67
2022/09/18 12:17:43;;;;;;;0.55;0.55;;;14.10;91.10;;;;;;4977051;28;20034;-67
2022/09/18 12:20:22;;;;;;;2.33;0.88;;;14.20;91.60;;;;;;4963539;28;20038;-68
2022/09/18 12:22:59;;;;;;;3.55;0.85;;;14.30;92.00;;;;;;4994583;28;20092;-69
2022/09/18 12:25:44;;;;;;;1.17;0.80;;;14.40;92.20;;;;;;4993604;28;20046;-68
2022/09/18 12:28:21;;;;;;;0.77;0.70;;;14.50;92.70;;;;;;4994359;28;20062;-68
2022/09/18 12:31:11;;;;;;;0.70;0.50;;;14.60;90.10;;;;;;4993958;28;20037;-67
2022/09/18 12:33:49;;;;;;;0.30;0.30;;;14.70;82.50;;;;;;4993348;28;20061;-68
2022/09/18 12:36:36;;;;;;;1.13;0.55;;;14.80;79.60;;;;;;4994041;28;20030;-67
2022/09/18 12:39:29;;;;;;;1.58;0.70;;;14.80;79.60;;;;;;4994313;28;20022;-68
2022/09/18 12:42:16;;;;;;;0.90;0.52;;;14.80;79.70;;;;;;4978092;28;20031;-67
2022/09/18 12:45:06;;;;;;;0.68;0.50;;;14.90;80.30;;;;;;4973794;28;20104;-67
2022/09/18 12:47:50;;;;;;;1.08;0.50;;;15.00;81.30;;;;;;4974083;28;20463;-69
2022/09/18 12:50:34;;;;;;;0.70;0.50;;;15.10;83.80;;;;;;4974206;28;20032;-67
2022/09/18 12:53:09;;;;;;;2.28;0.60;;;15.00;84.90;;;;;;4974145;28;20037;-67
2022/09/18 12:56:00;;;;;;;0.40;0.40;;;14.80;86.80;;;;;;4973938;28;20031;-68
2022/09/18 12:59:03;;;;;;;1.45;0.40;;;14.70;88.30;;;;;;4974268;28;20066;-68
2022/09/18 13:01:48;;;;;;;0.30;0.30;;;14.70;90.60;;;;;;4973753;28;20073;-69
2022/09/18 13:04:24;;;;;;;1.48;0.52;;;14.70;90.00;;;;;;4974352;28;20038;-68
2022/09/18 13:07:01;;;;;;;1.30;0.82;;;14.60;89.40;;;;;;4957210;28;20058;-68
2022/09/18 13:09:34;;;;;;;1.63;0.60;;;14.60;87.90;;;;;;4973692;28;20027;-69
2022/09/18 13:12:17;;;;;;;0.65;0.50;;;14.60;89.90;;;;;;4957092;28;20035;-69
2022/09/18 13:14:53;;;;;;;1.00;0.60;;;14.70;91.50;;;;;;4973702;28;20838;-69